Time;durP1;ratioP1;P1;durP2;ratioP2;P2;SDS_P1;SDS_P2;PMS_P1;PMS_P2;Temp;Humidity;BMP_temperature;BMP_pressure;BME280_temperature;BME280_humidity;BME280_pressure;Samples;Min_cycle;Max_cycle;Signal;HPM_P1;HPM_P2
2022/12/27 00:01:50;;;;;;;7.22;2.30;;;4.20;99.90;;;;;;5139669;27;20050;-57
2022/12/27 00:04:16;;;;;;;8.98;1.65;;;4.20;99.90;;;;;;5139109;27;20079;-58
2022/12/27 00:06:42;;;;;;;8.70;1.85;;;4.20;99.90;;;;;;5139815;27;20031;-58
2022/12/27 00:09:08;;;;;;;10.40;1.70;;;4.20;99.90;;;;;;5138836;27;20043;-57
2022/12/27 00:11:34;;;;;;;11.88;1.90;;;4.30;99.90;;;;;;5139759;27;20043;-57
2022/12/27 00:14:01;;;;;;;7.93;1.50;;;4.20;99.90;;;;;;5138693;27;20073;-57
2022/12/27 00:16:27;;;;;;;9.15;1.48;;;4.30;99.90;;;;;;5139437;27;20051;-58
2022/12/27 00:18:53;;;;;;;9.07;2.00;;;4.30;99.90;;;;;;5139092;27;20051;-57
2022/12/27 00:21:20;;;;;;;14.40;2.72;;;4.20;99.90;;;;;;5138974;27;20106;-57
2022/12/27 00:23:50;;;;;;;9.63;1.80;;;4.20;99.90;;;;;;5121101;27;20050;-57
2022/12/27 00:26:26;;;;;;;9.73;1.65;;;4.20;99.90;;;;;;5138613;27;20047;-57
2022/12/27 00:28:53;;;;;;;10.77;1.70;;;4.10;99.90;;;;;;5139344;27;20058;-57
2022/12/27 00:31:20;;;;;;;10.93;1.92;;;4.10;99.90;;;;;;5119854;27;20042;-57
2022/12/27 00:33:48;;;;;;;12.15;1.80;;;4.10;99.90;;;;;;5138903;27;20035;-57
2022/12/27 00:36:17;;;;;;;11.43;1.77;;;4.20;99.90;;;;;;5139065;27;20114;-56
2022/12/27 00:38:43;;;;;;;14.30;2.47;;;4.10;99.90;;;;;;5138679;27;20035;-56
2022/12/27 00:41:10;;;;;;;10.40;1.60;;;4.10;99.90;;;;;;5139146;27;20043;-56
2022/12/27 00:43:36;;;;;;;6.57;1.55;;;4.10;99.90;;;;;;5138292;27;20459;-57
2022/12/27 00:46:02;;;;;;;11.65;2.00;;;4.10;99.90;;;;;;5139131;27;20039;-56
2022/12/27 00:48:28;;;;;;;10.40;2.08;;;4.20;99.90;;;;;;5138242;27;20035;-54
2022/12/27 00:51:11;;;;;;;11.73;2.05;;;4.10;99.90;;;;;;5139099;27;20376;-56
2022/12/27 00:53:37;;;;;;;10.40;2.08;;;4.20;99.90;;;;;;5138929;27;20046;-56
2022/12/27 00:56:12;;;;;;;10.48;1.70;;;4.20;99.90;;;;;;5152208;27;20045;-57
2022/12/27 00:58:38;;;;;;;10.25;1.88;;;4.30;99.90;;;;;;5141210;27;20046;-56
2022/12/27 01:01:14;;;;;;;14.30;2.45;;;4.40;99.90;;;;;;5158543;27;20064;-57
2022/12/27 01:03:40;;;;;;;9.73;1.92;;;4.50;99.90;;;;;;5159901;27;20034;-57
2022/12/27 01:06:08;;;;;;;11.98;1.85;;;4.40;99.90;;;;;;5159278;27;20043;-57
2022/12/27 01:08:34;;;;;;;11.10;2.03;;;4.50;99.90;;;;;;5159241;27;20150;-57
2022/12/27 01:11:00;;;;;;;9.52;1.80;;;4.50;99.90;;;;;;5159624;27;20038;-57
2022/12/27 01:13:26;;;;;;;11.07;2.00;;;4.50;99.90;;;;;;5158540;27;20402;-57
2022/12/27 01:15:52;;;;;;;10.23;2.25;;;4.40;99.90;;;;;;5159514;27;20043;-57
2022/12/27 01:18:17;;;;;;;11.88;2.03;;;4.60;99.90;;;;;;5158750;27;20043;-57
2022/12/27 01:20:43;;;;;;;11.90;1.50;;;4.60;99.90;;;;;;5159596;27;20038;-56
2022/12/27 01:23:09;;;;;;;9.90;2.22;;;4.60;99.90;;;;;;5159233;27;20410;-56
2022/12/27 01:25:35;;;;;;;9.32;2.92;;;4.60;99.90;;;;;;5158638;27;20397;-55
2022/12/27 01:28:00;;;;;;;13.18;2.10;;;4.60;99.90;;;;;;5159580;27;20078;-57
2022/12/27 01:30:26;;;;;;;11.48;1.88;;;4.70;99.90;;;;;;5158056;27;20035;-57
2022/12/27 01:32:52;;;;;;;13.75;2.30;;;4.80;99.90;;;;;;5159359;27;20092;-57
2022/12/27 01:35:17;;;;;;;13.18;2.38;;;4.80;99.90;;;;;;5158427;27;20074;-57
2022/12/27 01:37:43;;;;;;;12.93;1.58;;;4.80;99.90;;;;;;5159591;27;20076;-57
2022/12/27 01:40:09;;;;;;;11.40;2.13;;;4.80;99.90;;;;;;5140401;27;20038;-56
2022/12/27 01:42:54;;;;;;;10.05;1.92;;;4.90;99.90;;;;;;5158517;27;20072;-57
2022/12/27 01:45:28;;;;;;;12.77;3.53;;;4.90;99.90;;;;;;5140682;27;20055;-57
2022/12/27 01:48:04;;;;;;;15.00;1.77;;;4.90;99.90;;;;;;5158794;27;20043;-56
2022/12/27 01:50:32;;;;;;;10.63;1.52;;;4.90;99.90;;;;;;5159245;27;20049;-56
2022/12/27 01:53:09;;;;;;;9.35;1.58;;;4.90;99.90;;;;;;5158681;27;20043;-57
2022/12/27 01:55:55;;;;;;;9.90;1.75;;;4.80;99.90;;;;;;5133738;27;20046;-57
2022/12/27 01:58:34;;;;;;;11.88;1.60;;;4.80;99.90;;;;;;5141750;27;20522;-57
2022/12/27 02:01:01;;;;;;;10.30;1.63;;;4.80;99.90;;;;;;5141470;27;20537;-58
2022/12/27 02:03:55;;;;;;;9.50;2.42;;;4.80;99.90;;;;;;5141922;27;20039;-58
2022/12/27 02:06:22;;;;;;;12.68;1.38;;;4.80;99.90;;;;;;5138692;27;20067;-56
2022/12/27 02:09:09;;;;;;;10.55;1.98;;;4.90;99.90;;;;;;5141093;27;20069;-57
2022/12/27 02:11:50;;;;;;;8.32;1.70;;;4.90;99.90;;;;;;5141927;27;20077;-56
2022/12/27 02:14:30;;;;;;;8.05;1.55;;;4.80;99.90;;;;;;5141361;27;20046;-56
2022/12/27 02:17:00;;;;;;;10.23;1.20;;;4.80;99.90;;;;;;5141501;27;20074;-57
2022/12/27 02:20:00;;;;;;;6.43;1.40;;;4.80;99.90;;;;;;5142159;27;20413;-56
2022/12/27 02:24:01;;;;;;;11.63;2.10;;;4.80;99.90;;;;;;5140717;27;20418;-57
2022/12/27 02:25:49;;;;;;;9.00;1.60;;;4.80;99.90;;;;;;5141147;27;20070;-56
2022/12/27 02:28:49;;;;;;;10.18;1.67;;;4.80;99.90;;;;;;5141318;27;20065;-56
2022/12/27 02:31:34;;;;;;;6.82;1.40;;;4.70;99.90;;;;;;5140600;27;20252;-55
2022/12/27 02:34:08;;;;;;;14.60;2.10;;;4.70;99.90;;;;;;5141274;27;20043;-57
2022/12/27 02:36:36;;;;;;;9.77;2.47;;;4.60;99.90;;;;;;5141736;27;20439;-57
2022/12/27 02:39:03;;;;;;;7.68;1.60;;;4.70;99.90;;;;;;5140534;27;20111;-58
2022/12/27 02:53:04;;;;;;;9.40;1.88;;;4.80;99.90;;;;;;5140286;27;20107;-57
2022/12/27 02:59:13;;;;;;;11.73;2.20;;;4.80;99.90;;;;;;5057162;28;20045;-57
2022/12/27 03:05:00;;;;;;;9.10;2.05;;;4.70;99.90;;;;;;5151365;27;20046;-57
2022/12/27 03:07:44;;;;;;;6.80;1.38;;;4.70;99.90;;;;;;5161653;27;20038;-57
2022/12/27 03:16:54;;;;;;;7.50;2.13;;;4.90;99.90;;;;;;5161267;27;20043;-57
2022/12/27 03:25:29;;;;;;;10.10;2.05;;;4.80;99.90;;;;;;5161157;27;20046;-58
2022/12/27 03:33:45;;;;;;;12.68;2.20;;;4.60;99.90;;;;;;5160721;27;20128;-58
2022/12/27 03:39:25;;;;;;;9.93;3.45;;;4.60;99.90;;;;;;5160248;27;20049;-57
2022/12/27 03:44:44;;;;;;;13.13;2.05;;;4.40;99.90;;;;;;5140245;27;20103;-57
2022/12/27 03:47:23;;;;;;;10.18;1.52;;;4.50;99.90;;;;;;5120830;27;20050;-57
2022/12/27 03:49:55;;;;;;;10.45;2.10;;;4.30;99.90;;;;;;5139985;27;20043;-57
2022/12/27 03:52:30;;;;;;;12.15;2.15;;;4.30;99.90;;;;;;5139246;27;20092;-57
2022/12/27 03:54:57;;;;;;;11.90;2.88;;;4.30;99.90;;;;;;5139784;27;20054;-57
2022/12/27 03:57:25;;;;;;;9.27;2.30;;;4.30;99.90;;;;;;5139635;27;20042;-57
2022/12/27 03:59:51;;;;;;;10.27;2.22;;;4.30;99.90;;;;;;5139350;27;20039;-58
2022/12/27 04:02:18;;;;;;;15.65;2.05;;;4.20;99.90;;;;;;5139688;27;20042;-59
2022/12/27 04:04:43;;;;;;;12.93;2.22;;;4.20;99.90;;;;;;5138890;27;20049;-58
2022/12/27 04:07:12;;;;;;;10.38;2.92;;;4.20;99.90;;;;;;5139319;27;20102;-58
2022/12/27 04:37:03;;;;;;;12.32;1.63;;;4.20;99.90;;;;;;5139495;27;20053;-57
2022/12/27 04:39:28;;;;;;;20.73;3.65;;;4.30;99.90;;;;;;5119928;27;20134;-58
2022/12/27 04:56:16;;;;;;;9.20;1.92;;;4.20;99.90;;;;;;5069837;28;20048;-59
2022/12/27 05:02:01;;;;;;;7.88;1.90;;;4.00;99.90;;;;;;5125397;28;20103;-58
2022/12/27 05:04:11;;;;;;;8.80;1.45;;;3.80;99.90;;;;;;5138432;28;20091;-58
2022/12/27 05:06:37;;;;;;;9.98;2.25;;;3.80;99.90;;;;;;5139058;28;20078;-58
2022/12/27 05:14:31;;;;;;;13.90;2.33;;;3.60;99.90;;;;;;5138508;28;20115;-58
2022/12/27 05:16:57;;;;;;;14.38;2.03;;;3.60;99.90;;;;;;5138294;28;20048;-58
2022/12/27 05:19:23;;;;;;;10.95;2.13;;;3.80;99.90;;;;;;5138890;28;20597;-58
2022/12/27 05:27:18;;;;;;;17.85;2.40;;;3.60;99.90;;;;;;5138416;27;20066;-58
2022/12/27 05:29:44;;;;;;;11.10;2.38;;;3.80;99.90;;;;;;5140906;27;20637;-59
2022/12/27 05:32:10;;;;;;;13.88;2.35;;;3.70;99.90;;;;;;5143017;27;20100;-58
2022/12/27 05:34:36;;;;;;;23.42;2.97;;;3.80;99.90;;;;;;5141885;27;20294;-58
2022/12/27 05:37:01;;;;;;;11.43;2.25;;;3.60;99.90;;;;;;5142572;27;20050;-58
2022/12/27 05:39:27;;;;;;;8.80;3.10;;;3.60;99.90;;;;;;5141820;27;20039;-59
2022/12/27 05:41:53;;;;;;;11.55;2.08;;;3.70;99.90;;;;;;5142615;27;20055;-59
2022/12/27 05:44:18;;;;;;;12.00;1.98;;;3.50;99.90;;;;;;5141861;27;20049;-58
2022/12/27 05:46:44;;;;;;;13.15;2.90;;;3.50;99.90;;;;;;5142245;27;20077;-58
2022/12/27 05:49:10;;;;;;;10.50;2.08;;;3.50;99.90;;;;;;5124010;27;20035;-57
2022/12/27 05:51:35;;;;;;;11.13;3.40;;;3.40;99.90;;;;;;5141745;27;20047;-58
2022/12/27 05:54:01;;;;;;;9.02;2.28;;;3.40;99.90;;;;;;5142280;27;20034;-58
2022/12/27 05:56:26;;;;;;;11.82;2.30;;;3.50;99.90;;;;;;5141560;27;20084;-58
2022/12/27 05:58:53;;;;;;;11.80;2.30;;;3.40;99.90;;;;;;5141837;27;20047;-58
2022/12/27 06:01:18;;;;;;;12.52;2.17;;;3.40;99.90;;;;;;5141357;27;20570;-57
2022/12/27 06:03:44;;;;;;;15.05;2.92;;;3.50;99.90;;;;;;5123235;27;20057;-58
2022/12/27 06:06:10;;;;;;;13.48;2.03;;;3.50;99.90;;;;;;5141771;27;20035;-57
2022/12/27 06:08:37;;;;;;;12.70;2.35;;;3.50;99.90;;;;;;5141352;27;20050;-58
2022/12/27 06:11:09;;;;;;;16.60;2.78;;;3.50;99.90;;;;;;5142062;27;20418;-58
2022/12/27 06:13:36;;;;;;;14.65;1.98;;;3.40;99.90;;;;;;5141180;27;20039;-58
2022/12/27 06:16:03;;;;;;;12.10;2.30;;;3.40;99.90;;;;;;5141775;27;20071;-58
2022/12/27 06:18:32;;;;;;;11.20;2.53;;;3.50;99.90;;;;;;5141353;27;20051;-57
2022/12/27 06:21:09;;;;;;;9.70;2.67;;;3.50;99.90;;;;;;5141673;27;20064;-58
2022/12/27 06:23:37;;;;;;;12.10;1.92;;;3.30;99.90;;;;;;5123493;27;20067;-57
2022/12/27 06:26:08;;;;;;;8.98;2.10;;;3.30;99.90;;;;;;5105081;27;20050;-57
2022/12/27 06:28:34;;;;;;;15.88;2.85;;;3.40;99.90;;;;;;5141780;27;20039;-58
2022/12/27 06:31:01;;;;;;;19.00;4.13;;;3.30;99.90;;;;;;5140803;27;20582;-58
2022/12/27 06:33:27;;;;;;;12.05;3.33;;;3.40;99.90;;;;;;5123223;27;20043;-58
2022/12/27 06:35:53;;;;;;;15.38;2.78;;;3.40;99.90;;;;;;5140846;27;20422;-57
2022/12/27 06:38:19;;;;;;;13.07;2.30;;;3.30;99.90;;;;;;5140994;27;20043;-58
2022/12/27 06:40:45;;;;;;;12.80;2.60;;;3.40;99.90;;;;;;5141174;27;20043;-58
2022/12/27 06:43:11;;;;;;;8.50;1.85;;;3.40;99.90;;;;;;5140245;27;20223;-57
2022/12/27 06:45:37;;;;;;;12.88;2.53;;;3.40;99.90;;;;;;5122980;27;20082;-58
2022/12/27 06:48:03;;;;;;;13.57;2.75;;;3.30;99.90;;;;;;5140821;27;20103;-58
2022/12/27 06:50:28;;;;;;;13.82;2.28;;;3.40;99.90;;;;;;5141332;27;20119;-58
2022/12/27 06:52:54;;;;;;;17.73;1.90;;;3.30;99.90;;;;;;5139407;27;20050;-58
2022/12/27 06:55:20;;;;;;;14.38;2.08;;;3.10;99.90;;;;;;5136692;27;20112;-58
2022/12/27 06:57:46;;;;;;;11.18;2.33;;;3.20;99.90;;;;;;5137204;27;20047;-58
2022/12/27 07:00:12;;;;;;;16.55;2.30;;;3.00;99.90;;;;;;5136413;27;20043;-58
2022/12/27 07:02:38;;;;;;;9.73;2.53;;;3.10;99.90;;;;;;5137211;27;20051;-58
2022/12/27 07:05:05;;;;;;;13.27;2.05;;;3.10;99.90;;;;;;5136204;27;20140;-58
2022/12/27 07:07:30;;;;;;;10.98;2.53;;;3.00;99.90;;;;;;5137863;27;20047;-58
2022/12/27 07:09:57;;;;;;;12.50;2.08;;;3.00;99.90;;;;;;5136737;27;20407;-57
2022/12/27 07:12:22;;;;;;;13.32;2.20;;;3.20;99.90;;;;;;5136984;27;20062;-58
2022/12/27 07:14:48;;;;;;;13.10;2.67;;;3.20;99.90;;;;;;5118968;27;20051;-58
2022/12/27 07:17:14;;;;;;;10.80;2.15;;;3.20;99.90;;;;;;5136448;27;20430;-60
2022/12/27 07:19:39;;;;;;;13.75;2.30;;;3.10;99.90;;;;;;5137337;27;20042;-57
2022/12/27 07:22:05;;;;;;;16.58;2.60;;;3.10;99.90;;;;;;5136523;27;20084;-57
2022/12/27 07:24:32;;;;;;;10.80;2.35;;;3.10;99.90;;;;;;5136922;27;20047;-58
2022/12/27 07:26:58;;;;;;;14.40;3.10;;;3.10;99.90;;;;;;5135737;27;20043;-58
2022/12/27 07:29:24;;;;;;;11.98;2.97;;;3.10;99.90;;;;;;5135456;27;20098;-58
2022/12/27 07:31:50;;;;;;;10.48;2.17;;;3.10;99.90;;;;;;5135230;27;20067;-58
2022/12/27 07:34:16;;;;;;;12.55;2.20;;;3.20;99.90;;;;;;5135346;27;20055;-58
2022/12/27 07:36:42;;;;;;;14.85;2.63;;;3.20;99.90;;;;;;5136130;27;20418;-56
2022/12/27 07:39:08;;;;;;;15.32;2.15;;;3.20;99.90;;;;;;5135722;27;20047;-59
2022/12/27 07:41:35;;;;;;;11.43;2.67;;;3.10;99.90;;;;;;5135842;27;20550;-58
2022/12/27 07:44:01;;;;;;;10.75;2.33;;;3.10;99.90;;;;;;5135245;27;20050;-57
2022/12/27 07:46:27;;;;;;;13.52;1.98;;;3.20;99.90;;;;;;5135794;27;20080;-58
2022/12/27 07:48:54;;;;;;;9.88;1.70;;;3.20;99.90;;;;;;5135585;27;20055;-59
2022/12/27 07:51:20;;;;;;;11.32;2.35;;;3.20;99.90;;;;;;5134227;27;20081;-57
2022/12/27 07:53:50;;;;;;;10.30;1.85;;;3.10;99.90;;;;;;5135474;27;20178;-58
2022/12/27 07:56:24;;;;;;;9.35;2.67;;;3.10;99.90;;;;;;5151299;27;20074;-58
2022/12/27 07:58:50;;;;;;;12.93;3.00;;;3.10;99.90;;;;;;5155900;27;20053;-56
2022/12/27 08:01:18;;;;;;;14.23;2.88;;;3.10;99.90;;;;;;5156129;27;20100;-57
2022/12/27 08:03:44;;;;;;;9.80;1.92;;;3.00;99.90;;;;;;5156260;27;20054;-57
2022/12/27 08:06:31;;;;;;;16.80;3.40;;;3.10;99.90;;;;;;5156422;27;20045;-57
2022/12/27 08:08:59;;;;;;;7.75;1.70;;;3.30;99.90;;;;;;5155712;27;20054;-57
2022/12/27 08:11:25;;;;;;;7.28;1.85;;;3.10;99.90;;;;;;5156461;27;20066;-57
2022/12/27 08:13:51;;;;;;;8.95;2.08;;;3.30;99.90;;;;;;5155665;27;20084;-57
2022/12/27 08:16:20;;;;;;;13.20;2.72;;;3.70;99.90;;;;;;5156390;27;20043;-57
2022/12/27 08:18:46;;;;;;;10.68;2.28;;;3.20;99.90;;;;;;5155609;27;20055;-57
2022/12/27 08:21:12;;;;;;;7.22;1.98;;;3.10;99.90;;;;;;5137173;27;20042;-57
2022/12/27 08:23:38;;;;;;;9.02;2.08;;;3.20;99.90;;;;;;5156780;27;20054;-57
2022/12/27 08:26:05;;;;;;;14.23;2.03;;;3.20;99.90;;;;;;5155258;27;20034;-58
2022/12/27 08:28:30;;;;;;;12.55;1.90;;;3.30;99.90;;;;;;5155841;27;20495;-57
2022/12/27 08:30:57;;;;;;;11.98;1.88;;;3.40;99.90;;;;;;5155241;27;20087;-56
2022/12/27 08:33:24;;;;;;;11.20;1.65;;;3.60;99.90;;;;;;5156254;27;20050;-56
2022/12/27 08:35:50;;;;;;;7.72;1.80;;;3.40;99.90;;;;;;5156191;27;20045;-57
2022/12/27 08:38:16;;;;;;;15.93;1.92;;;3.50;99.90;;;;;;5155697;27;20047;-57
2022/12/27 08:40:43;;;;;;;10.73;3.08;;;3.50;99.90;;;;;;5120258;27;20499;-57
2022/12/27 08:43:10;;;;;;;9.63;2.05;;;3.40;99.90;;;;;;5134674;27;20132;-58
2022/12/27 08:45:37;;;;;;;10.65;1.77;;;3.50;99.90;;;;;;5135326;27;20050;-56
2022/12/27 08:48:03;;;;;;;12.20;2.40;;;3.60;99.90;;;;;;5115868;27;20039;-57
2022/12/27 08:50:29;;;;;;;8.15;1.52;;;3.60;99.90;;;;;;5135337;27;20109;-56
2022/12/27 08:52:59;;;;;;;10.93;1.88;;;3.60;99.90;;;;;;5134370;27;20078;-57
2022/12/27 08:55:28;;;;;;;7.93;1.38;;;3.60;99.90;;;;;;5116334;28;20067;-58
2022/12/27 08:57:59;;;;;;;10.25;1.85;;;3.70;99.90;;;;;;5116861;28;20050;-57
2022/12/27 09:00:26;;;;;;;9.93;1.88;;;3.70;99.90;;;;;;5142482;27;20046;-57
2022/12/27 09:02:52;;;;;;;8.65;1.75;;;3.70;99.90;;;;;;5110621;27;20091;-57
2022/12/27 09:05:18;;;;;;;11.05;1.92;;;3.70;99.90;;;;;;5130778;27;20046;-57
2022/12/27 09:07:45;;;;;;;6.07;1.98;;;3.70;99.90;;;;;;5146252;27;20142;-57
2022/12/27 09:10:11;;;;;;;14.30;2.45;;;3.70;99.90;;;;;;5139183;27;20042;-58
2022/12/27 09:12:37;;;;;;;11.52;2.10;;;3.80;99.90;;;;;;5138227;27;20047;-57
2022/12/27 09:15:03;;;;;;;10.18;2.35;;;3.90;99.90;;;;;;5120875;27;20047;-55
2022/12/27 09:17:28;;;;;;;11.15;1.92;;;3.80;99.90;;;;;;5137893;27;20047;-57
2022/12/27 09:19:54;;;;;;;6.75;1.83;;;3.80;99.90;;;;;;5139366;27;20050;-56
2022/12/27 09:22:20;;;;;;;9.77;1.92;;;3.80;99.90;;;;;;5138181;27;20104;-57
2022/12/27 09:24:45;;;;;;;13.35;2.53;;;3.80;99.90;;;;;;5121487;27;20035;-57
2022/12/27 09:27:11;;;;;;;9.80;2.15;;;4.00;99.90;;;;;;5119966;27;20105;-57
2022/12/27 09:29:37;;;;;;;10.82;2.00;;;3.90;99.90;;;;;;5119372;27;20617;-57
2022/12/27 09:32:02;;;;;;;10.38;2.25;;;4.00;99.90;;;;;;5138486;27;20047;-57
2022/12/27 09:34:28;;;;;;;7.72;1.88;;;4.00;99.90;;;;;;5137570;27;20099;-57
2022/12/27 09:36:54;;;;;;;9.95;1.83;;;4.00;99.90;;;;;;5138310;27;20064;-57
2022/12/27 09:39:19;;;;;;;9.20;1.92;;;4.10;99.90;;;;;;5138242;27;20406;-57
2022/12/27 09:42:11;;;;;;;9.57;1.88;;;4.10;99.90;;;;;;5137893;27;20039;-57
2022/12/27 09:45:01;;;;;;;6.90;1.88;;;4.10;99.90;;;;;;5120187;27;20047;-56
2022/12/27 09:47:48;;;;;;;8.63;1.92;;;4.30;99.90;;;;;;5138071;27;20050;-57
2022/12/27 09:50:44;;;;;;;11.65;2.40;;;4.30;99.90;;;;;;5138678;27;20054;-57
2022/12/27 09:53:40;;;;;;;9.70;1.67;;;4.30;99.90;;;;;;5138037;27;20498;-57
2022/12/27 09:56:09;;;;;;;6.95;1.63;;;4.40;99.90;;;;;;5151786;27;20047;-58
2022/12/27 09:58:51;;;;;;;9.02;2.15;;;4.50;99.90;;;;;;5158554;27;20085;-57
2022/12/27 10:01:33;;;;;;;12.27;2.53;;;4.40;99.90;;;;;;5158546;27;20041;-58
2022/12/27 10:03:59;;;;;;;8.65;1.85;;;4.40;99.90;;;;;;5158560;27;20091;-57
2022/12/27 10:06:47;;;;;;;12.50;2.17;;;4.50;99.90;;;;;;5158770;27;20066;-58
2022/12/27 10:09:39;;;;;;;9.38;1.98;;;4.60;99.90;;;;;;5158478;27;20043;-58
2022/12/27 10:12:05;;;;;;;10.37;1.93;;;4.50;99.90;;;;;;5143529;27;20050;-59
2022/12/27 10:15:12;;;;;;;11.88;2.15;;;4.60;99.90;;;;;;5161756;27;20059;-56
2022/12/27 10:18:12;;;;;;;7.90;2.75;;;4.70;99.90;;;;;;5162051;27;20134;-61
2022/12/27 10:21:09;;;;;;;12.95;3.47;;;4.80;99.90;;;;;;5162537;27;20053;-58
2022/12/27 10:23:37;;;;;;;12.93;2.15;;;5.00;99.90;;;;;;5161868;27;20102;-57
2022/12/27 10:26:13;;;;;;;9.15;2.22;;;5.00;99.90;;;;;;5161686;27;20050;-57
2022/12/27 10:28:43;;;;;;;10.93;2.58;;;5.20;99.90;;;;;;5160461;27;20071;-57
2022/12/27 10:31:21;;;;;;;11.38;3.75;;;5.20;99.90;;;;;;5149156;27;20050;-57
2022/12/27 10:33:48;;;;;;;9.25;2.53;;;5.40;99.90;;;;;;5151625;27;20034;-57
2022/12/27 10:36:26;;;;;;;7.60;2.17;;;5.30;99.90;;;;;;5150408;27;20099;-58
2022/12/27 10:38:53;;;;;;;12.30;2.70;;;5.40;99.90;;;;;;5149647;27;20075;-57
2022/12/27 10:41:49;;;;;;;9.07;2.08;;;5.30;99.90;;;;;;5151093;27;20035;-56
2022/12/27 10:44:15;;;;;;;14.15;2.50;;;5.40;99.90;;;;;;5150619;27;20050;-56
2022/12/27 10:46:47;;;;;;;9.40;1.95;;;5.50;99.90;;;;;;5149828;27;20665;-57
2022/12/27 10:49:27;;;;;;;8.48;2.03;;;5.60;99.90;;;;;;5141586;27;20047;-57
2022/12/27 10:52:17;;;;;;;10.55;1.90;;;5.60;99.90;;;;;;5140494;27;20330;-56
2022/12/27 10:54:55;;;;;;;13.57;2.25;;;5.70;99.90;;;;;;5143754;27;20039;-57
2022/12/27 10:57:31;;;;;;;11.98;2.50;;;5.70;99.90;;;;;;5161809;27;20110;-57
2022/12/27 11:00:17;;;;;;;8.27;2.25;;;5.80;99.90;;;;;;5161033;27;20035;-57
2022/12/27 11:02:57;;;;;;;13.70;3.13;;;5.70;99.90;;;;;;5161941;27;20038;-57
2022/12/27 11:05:24;;;;;;;8.43;2.20;;;5.80;99.90;;;;;;5161140;27;20544;-57
2022/12/27 11:07:50;;;;;;;8.25;1.70;;;5.80;99.90;;;;;;5161743;27;20088;-57
2022/12/27 11:10:19;;;;;;;8.63;2.75;;;6.10;99.90;;;;;;5142710;27;20103;-57
2022/12/27 11:12:56;;;;;;;9.85;2.00;;;6.00;99.90;;;;;;5161033;27;20465;-57
2022/12/27 11:15:23;;;;;;;7.03;1.83;;;6.10;99.90;;;;;;5129383;27;20050;-57
2022/12/27 11:18:01;;;;;;;7.95;3.00;;;6.10;99.90;;;;;;5121795;27;20043;-58
2022/12/27 11:20:37;;;;;;;9.50;2.17;;;6.10;99.90;;;;;;5139864;27;20039;-57
2022/12/27 11:23:10;;;;;;;14.90;2.85;;;6.20;99.90;;;;;;5139051;27;20063;-58
2022/12/27 11:25:54;;;;;;;6.45;2.28;;;6.20;99.90;;;;;;5143744;27;20039;-57
2022/12/27 11:28:31;;;;;;;13.25;1.98;;;6.30;99.90;;;;;;5150442;27;20062;-57
2022/12/27 11:31:03;;;;;;;7.68;2.13;;;6.20;99.90;;;;;;5149249;27;20103;-57
2022/12/27 11:33:48;;;;;;;7.28;2.10;;;6.20;99.90;;;;;;5149035;27;20050;-58
2022/12/27 11:36:22;;;;;;;7.55;2.03;;;6.20;99.90;;;;;;5143017;27;20120;-57
2022/12/27 11:38:49;;;;;;;9.43;2.13;;;6.30;99.90;;;;;;5103903;27;20054;-58
2022/12/27 11:41:23;;;;;;;8.90;2.20;;;6.30;99.90;;;;;;5140098;27;20035;-58
2022/12/27 11:43:58;;;;;;;10.68;3.13;;;6.40;99.90;;;;;;5138460;27;20042;-57
2022/12/27 11:46:36;;;;;;;9.77;2.50;;;6.50;99.90;;;;;;5139336;27;20049;-57
2022/12/27 11:49:05;;;;;;;10.18;2.30;;;6.40;99.90;;;;;;5138985;27;20409;-58
2022/12/27 11:52:08;;;;;;;14.23;3.10;;;6.50;99.90;;;;;;5138912;27;20083;-57
2022/12/27 11:54:53;;;;;;;11.75;2.60;;;6.50;99.90;;;;;;5141141;27;20096;-58
2022/12/27 11:57:33;;;;;;;10.65;2.40;;;6.50;99.90;;;;;;5160279;27;20053;-57
2022/12/27 11:59:59;;;;;;;8.32;2.38;;;6.40;99.90;;;;;;5123455;27;20045;-58
2022/12/27 12:03:09;;;;;;;9.70;2.28;;;6.40;99.90;;;;;;5160335;27;20031;-58
2022/12/27 12:05:49;;;;;;;13.40;2.53;;;6.40;99.90;;;;;;5140523;27;20046;-56
2022/12/27 12:08:36;;;;;;;8.43;2.53;;;6.40;99.90;;;;;;5140546;27;20050;-56
2022/12/27 12:11:14;;;;;;;10.82;2.17;;;6.30;99.90;;;;;;5159779;27;20054;-57
2022/12/27 12:14:13;;;;;;;10.68;1.98;;;6.30;99.90;;;;;;5158920;27;20478;-58
2022/12/27 12:16:47;;;;;;;9.07;1.40;;;6.20;99.90;;;;;;5159572;27;20039;-57
2022/12/27 12:19:46;;;;;;;8.40;1.92;;;6.20;99.90;;;;;;5160011;27;20125;-58
2022/12/27 12:22:22;;;;;;;7.50;1.70;;;6.20;99.90;;;;;;5158718;27;20050;-57
2022/12/27 12:25:18;;;;;;;6.50;2.13;;;6.10;99.90;;;;;;5158490;27;20046;-56
2022/12/27 12:27:53;;;;;;;10.23;1.90;;;6.10;99.90;;;;;;5158537;27;20165;-57
2022/12/27 12:30:49;;;;;;;9.10;1.95;;;6.10;99.90;;;;;;5158859;27;20405;-55
2022/12/27 12:33:36;;;;;;;8.18;1.77;;;6.10;99.90;;;;;;5159673;27;20142;-58
2022/12/27 12:36:20;;;;;;;12.18;2.35;;;6.20;99.90;;;;;;5140811;27;20042;-57
2022/12/27 12:39:01;;;;;;;12.73;2.05;;;6.30;99.90;;;;;;5138322;27;20035;-58
2022/12/27 12:41:41;;;;;;;8.48;1.80;;;6.20;99.90;;;;;;5157915;27;20066;-57
2022/12/27 12:44:43;;;;;;;9.27;2.50;;;6.30;99.90;;;;;;5158228;27;20043;-57
2022/12/27 12:47:39;;;;;;;19.58;6.25;;;6.40;99.90;;;;;;5053427;28;20049;-57
2022/12/27 12:50:37;;;;;;;10.40;3.08;;;6.40;99.90;;;;;;5158287;27;20058;-56
2022/12/27 12:53:27;;;;;;;11.73;2.35;;;6.50;99.90;;;;;;5159469;27;20644;-57
2022/12/27 12:56:24;;;;;;;11.82;2.28;;;6.40;99.90;;;;;;5144994;27;20051;-58
2022/12/27 12:59:26;;;;;;;13.25;2.05;;;6.40;99.90;;;;;;5120537;28;20239;-58
2022/12/27 13:02:13;;;;;;;8.57;1.80;;;6.40;99.90;;;;;;5138297;28;20047;-57
2022/12/27 13:04:53;;;;;;;8.63;2.05;;;6.30;99.90;;;;;;5147260;27;20046;-58
2022/12/27 13:07:24;;;;;;;8.45;1.85;;;6.30;99.90;;;;;;5141373;27;20070;-58
2022/12/27 13:10:15;;;;;;;9.20;2.33;;;6.30;99.90;;;;;;5119729;28;20108;-58
2022/12/27 13:12:55;;;;;;;9.57;2.72;;;6.40;99.90;;;;;;5102063;28;20062;-58
2022/12/27 13:15:43;;;;;;;8.00;1.80;;;6.40;99.90;;;;;;5138309;28;20055;-57
2022/12/27 13:18:22;;;;;;;9.75;2.50;;;6.20;99.90;;;;;;5137958;28;20415;-58
2022/12/27 13:20:52;;;;;;;8.70;1.88;;;6.30;99.90;;;;;;5138115;28;20573;-58
2022/12/27 13:24:00;;;;;;;7.70;1.88;;;6.20;99.90;;;;;;5138514;28;20062;-57
2022/12/27 13:27:01;;;;;;;13.43;2.00;;;6.20;99.90;;;;;;5137784;28;20039;-58
2022/12/27 13:29:27;;;;;;;8.95;2.40;;;6.10;99.90;;;;;;5124161;27;20054;-56
2022/12/27 13:32:13;;;;;;;10.05;2.25;;;6.00;99.90;;;;;;5123521;27;20051;-57
2022/12/27 13:34:59;;;;;;;14.23;2.00;;;5.90;99.90;;;;;;5156722;27;20050;-56
2022/12/27 13:37:54;;;;;;;10.07;3.47;;;5.90;99.90;;;;;;5140276;27;20047;-57
2022/12/27 13:40:46;;;;;;;6.38;1.75;;;5.80;99.90;;;;;;5159059;27;20145;-58
2022/12/27 13:43:53;;;;;;;8.00;2.08;;;5.80;99.90;;;;;;5152126;27;20051;-57
2022/12/27 13:46:33;;;;;;;17.63;4.15;;;5.80;99.90;;;;;;5054365;28;20064;-57
2022/12/27 13:49:20;;;;;;;14.05;3.30;;;5.60;99.90;;;;;;5146879;27;20059;-56
2022/12/27 13:51:50;;;;;;;8.65;2.03;;;5.70;99.90;;;;;;5160634;27;20270;-57
2022/12/27 13:54:51;;;;;;;8.93;2.17;;;5.60;99.90;;;;;;5162576;27;20070;-58
2022/12/27 13:57:23;;;;;;;6.95;2.05;;;5.60;99.90;;;;;;5130302;27;20058;-57
2022/12/27 14:00:10;;;;;;;9.07;2.55;;;5.50;99.90;;;;;;5141416;27;20398;-57
2022/12/27 14:02:36;;;;;;;9.10;2.40;;;5.50;99.90;;;;;;5141612;27;20055;-57
2022/12/27 14:05:02;;;;;;;11.88;2.80;;;5.50;99.90;;;;;;5140392;27;20563;-57
2022/12/27 14:07:52;;;;;;;12.25;3.15;;;5.60;99.90;;;;;;5141557;27;20066;-57
2022/12/27 14:10:47;;;;;;;7.95;2.13;;;5.40;99.90;;;;;;5141808;27;20102;-57
2022/12/27 14:13:41;;;;;;;10.45;2.80;;;5.40;99.90;;;;;;5140590;27;20071;-56
2022/12/27 14:16:19;;;;;;;16.05;3.60;;;5.50;99.90;;;;;;5141731;27;20051;-57
2022/12/27 14:18:56;;;;;;;12.68;3.05;;;5.60;99.90;;;;;;5140811;27;20648;-57
2022/12/27 14:21:59;;;;;;;7.13;3.08;;;5.60;99.90;;;;;;5122186;27;20055;-56
2022/12/27 14:24:39;;;;;;;10.80;3.10;;;5.70;99.90;;;;;;5141089;27;20460;-59
2022/12/27 14:27:26;;;;;;;9.45;3.40;;;5.50;99.90;;;;;;5140869;27;20043;-58
2022/12/27 14:30:12;;;;;;;13.80;3.53;;;5.60;99.90;;;;;;5122121;27;20103;-58
2022/12/27 14:32:44;;;;;;;14.43;4.13;;;5.50;99.90;;;;;;5141252;27;20062;-55
2022/12/27 14:35:46;;;;;;;14.50;4.15;;;5.50;99.90;;;;;;5122174;27;20163;-58
2022/12/27 14:38:41;;;;;;;17.25;4.00;;;5.60;99.90;;;;;;5140982;27;20035;-58
2022/12/27 14:41:44;;;;;;;16.13;3.47;;;5.60;99.90;;;;;;5123735;27;20130;-58
2022/12/27 14:44:18;;;;;;;14.07;4.65;;;5.50;99.90;;;;;;5140851;27;20065;-59
2022/12/27 14:46:56;;;;;;;10.93;3.45;;;5.60;99.90;;;;;;5139659;27;20098;-59
2022/12/27 14:49:43;;;;;;;12.15;3.58;;;5.50;99.90;;;;;;5140178;27;20038;-59
2022/12/27 14:52:23;;;;;;;12.95;4.13;;;5.60;99.90;;;;;;5103671;27;20578;-59
2022/12/27 14:55:03;;;;;;;11.68;3.10;;;5.40;99.90;;;;;;5143565;27;20623;-59
2022/12/27 14:57:47;;;;;;;12.20;3.75;;;5.40;99.90;;;;;;5161621;27;20043;-59
2022/12/27 15:00:23;;;;;;;11.82;3.63;;;5.40;99.90;;;;;;5160793;27;20106;-58
2022/12/27 15:03:00;;;;;;;17.13;3.72;;;5.30;99.90;;;;;;5160976;27;20034;-58
2022/12/27 15:05:44;;;;;;;14.93;4.70;;;5.40;99.90;;;;;;5160803;27;20049;-58